createdAt,value
2018-06-22T00:00:47.504Z,0.00
2018-06-22T00:01:47.486Z,0.00
2018-06-22T00:02:47.462Z,0.00
2018-06-22T00:03:47.443Z,0.00
2018-06-22T00:04:48.368Z,0.00
2018-06-22T00:05:48.967Z,0.00
2018-06-22T00:06:47.404Z,0.00
2018-06-22T00:07:47.399Z,0.00
2018-06-22T00:08:47.382Z,0.00
2018-06-22T00:09:47.346Z,0.00
2018-06-22T00:10:47.328Z,0.00
2018-06-22T00:11:47.305Z,0.00
2018-06-22T00:12:47.266Z,0.00
2018-06-22T00:13:47.238Z,0.00
2018-06-22T00:14:47.227Z,0.00
2018-06-22T00:15:47.211Z,0.00
2018-06-22T00:16:47.248Z,0.00
2018-06-22T00:17:47.169Z,0.00
2018-06-22T00:18:47.157Z,0.00
2018-06-22T00:19:47.141Z,0.00
2018-06-22T00:20:47.115Z,0.00
2018-06-22T00:21:47.096Z,0.00
2018-06-22T00:22:47.077Z,0.00
2018-06-22T00:23:47.054Z,0.00
2018-06-22T00:24:47.038Z,0.00
2018-06-22T00:25:47.013Z,0.00
2018-06-22T00:26:47.001Z,0.00
2018-06-22T00:27:47.014Z,0.00
2018-06-22T00:28:46.959Z,0.00
2018-06-22T00:29:46.937Z,0.00
2018-06-22T00:30:46.930Z,0.00
2018-06-22T00:31:46.901Z,0.00
2018-06-22T00:32:46.879Z,0.00
2018-06-22T00:33:46.863Z,0.00
2018-06-22T00:34:46.841Z,0.00
2018-06-22T00:35:46.831Z,0.00
2018-06-22T00:36:46.806Z,0.00
2018-06-22T00:37:46.787Z,0.00
2018-06-22T00:38:46.771Z,0.00
2018-06-22T00:39:46.751Z,0.00
2018-06-22T00:40:46.726Z,0.00
2018-06-22T00:41:46.706Z,0.00
2018-06-22T00:42:46.694Z,0.00
2018-06-22T00:43:46.675Z,0.00
2018-06-22T00:44:46.666Z,0.00
2018-06-22T00:45:46.637Z,0.00
2018-06-22T00:46:46.617Z,0.00
2018-06-22T00:47:46.595Z,0.00
2018-06-22T00:48:46.575Z,0.00
2018-06-22T00:49:46.567Z,0.00
2018-06-22T00:50:46.541Z,0.00
2018-06-22T00:51:46.518Z,0.00
2018-06-22T00:52:46.499Z,0.00
2018-06-22T00:53:46.483Z,0.00
2018-06-22T00:54:46.464Z,0.00
2018-06-22T00:55:46.438Z,0.00
2018-06-22T00:56:46.424Z,0.00
2018-06-22T00:57:46.405Z,0.00
2018-06-22T00:58:46.388Z,0.00
2018-06-22T00:59:46.381Z,0.00
2018-06-22T01:00:46.346Z,0.00
2018-06-22T01:01:46.349Z,0.00
2018-06-22T01:02:46.308Z,0.00
2018-06-22T01:03:46.293Z,0.00
2018-06-22T01:04:46.277Z,0.00
2018-06-22T01:05:46.254Z,0.00
2018-06-22T01:06:46.242Z,0.00
2018-06-22T01:07:46.220Z,0.00
2018-06-22T01:08:46.200Z,0.00
2018-06-22T01:09:46.178Z,0.00
2018-06-22T01:10:46.158Z,0.00
2018-06-22T01:11:46.133Z,0.00
2018-06-22T01:12:46.118Z,0.00
2018-06-22T01:13:46.108Z,0.00
2018-06-22T01:14:46.079Z,0.00
2018-06-22T01:15:46.063Z,0.00
2018-06-22T01:16:46.053Z,0.00
2018-06-22T01:17:46.020Z,0.00
2018-06-22T01:18:46.011Z,0.00
2018-06-22T01:19:45.981Z,0.00
2018-06-22T01:20:45.966Z,0.00
2018-06-22T01:21:45.947Z,0.00
2018-06-22T01:22:45.928Z,0.00
2018-06-22T01:23:45.958Z,0.00
2018-06-22T01:24:45.891Z,0.00
2018-06-22T01:25:45.871Z,0.00
2018-06-22T01:26:45.902Z,0.00
2018-06-22T01:27:45.836Z,0.00
2018-06-22T01:28:45.811Z,0.00
2018-06-22T01:29:45.796Z,0.00
2018-06-22T01:30:45.772Z,0.00
2018-06-22T01:31:45.755Z,0.00
2018-06-22T01:32:45.736Z,0.00
2018-06-22T01:33:45.724Z,0.00
2018-06-22T01:34:45.696Z,0.00
2018-06-22T01:35:45.676Z,0.00
2018-06-22T01:36:45.657Z,0.00
2018-06-22T01:37:45.637Z,0.00
2018-06-22T01:38:45.614Z,0.00
2018-06-22T01:39:45.595Z,0.00
2018-06-22T01:40:45.579Z,0.00
2018-06-22T01:41:45.556Z,0.00
2018-06-22T01:42:45.540Z,0.00
2018-06-22T01:43:45.518Z,0.00
2018-06-22T01:44:45.503Z,0.00
2018-06-22T01:45:45.477Z,0.00
2018-06-22T01:46:45.455Z,0.00
2018-06-22T01:47:45.441Z,0.00
2018-06-22T01:48:45.425Z,0.00
2018-06-22T01:49:45.393Z,0.00
2018-06-22T01:50:45.383Z,0.00
2018-06-22T01:51:45.364Z,0.00
2018-06-22T01:52:45.338Z,0.00
2018-06-22T01:53:45.332Z,0.00
2018-06-22T01:54:45.303Z,0.00
2018-06-22T01:55:45.277Z,0.00
2018-06-22T01:56:45.263Z,0.00
2018-06-22T01:57:45.239Z,0.00
2018-06-22T01:58:45.223Z,0.00
2018-06-22T01:59:45.204Z,0.00
2018-06-22T02:00:45.196Z,0.00
2018-06-22T02:01:45.170Z,0.00
2018-06-22T02:02:45.150Z,0.00
2018-06-22T02:03:45.130Z,0.00
2018-06-22T02:04:45.099Z,0.00
2018-06-22T02:05:45.127Z,0.00
2018-06-22T02:06:45.060Z,0.00
2018-06-22T02:07:45.050Z,0.00
2018-06-22T02:08:45.025Z,0.00
2018-06-22T02:09:45.014Z,0.00
2018-06-22T02:10:44.980Z,0.00
2018-06-22T02:11:44.972Z,0.00
2018-06-22T02:12:44.945Z,0.00
2018-06-22T02:13:44.929Z,0.00
2018-06-22T02:14:44.899Z,0.00
2018-06-22T02:15:44.885Z,0.00
2018-06-22T02:16:44.864Z,0.00
2018-06-22T02:17:44.846Z,0.00
2018-06-22T02:18:44.828Z,0.00
2018-06-22T02:19:44.805Z,0.00
2018-06-22T02:20:44.783Z,0.00
2018-06-22T02:21:44.767Z,0.00
2018-06-22T02:22:44.744Z,0.00
2018-06-22T02:23:44.726Z,0.00
2018-06-22T02:24:44.705Z,0.00
2018-06-22T02:25:44.678Z,0.00
2018-06-22T02:26:44.664Z,0.00
2018-06-22T02:27:44.645Z,0.00
2018-06-22T02:28:44.617Z,0.00
2018-06-22T02:29:44.604Z,0.00
2018-06-22T02:30:44.585Z,0.00
2018-06-22T02:31:44.566Z,0.00
2018-06-22T02:32:44.555Z,0.00
2018-06-22T02:33:44.524Z,0.00
2018-06-22T02:34:44.505Z,0.00
2018-06-22T02:35:44.483Z,0.00
2018-06-22T02:36:44.460Z,0.00
2018-06-22T02:37:44.438Z,0.00
2018-06-22T02:38:44.422Z,0.00
2018-06-22T02:39:44.409Z,0.00
2018-06-22T02:40:44.393Z,0.00
2018-06-22T02:41:44.365Z,0.00
2018-06-22T02:42:44.341Z,0.00
2018-06-22T02:43:44.327Z,0.00
2018-06-22T02:44:44.297Z,0.00
2018-06-22T02:45:44.282Z,0.00
2018-06-22T02:46:44.263Z,0.00
2018-06-22T02:47:44.235Z,0.00
2018-06-22T02:48:44.217Z,0.00
2018-06-22T02:49:44.208Z,0.00
2018-06-22T02:50:44.176Z,0.00
2018-06-22T02:51:44.157Z,0.00
2018-06-22T02:52:44.135Z,0.00
2018-06-22T02:53:44.116Z,0.00
2018-06-22T02:54:44.103Z,0.00
2018-06-22T02:55:44.077Z,0.00
2018-06-22T02:56:44.061Z,0.00
2018-06-22T02:57:44.039Z,0.00
2018-06-22T02:58:44.021Z,0.00
2018-06-22T02:59:44.046Z,0.00
2018-06-22T03:00:43.972Z,0.00
2018-06-22T03:01:43.976Z,0.00
2018-06-22T03:02:43.934Z,0.00
2018-06-22T03:03:43.912Z,0.00
2018-06-22T03:04:43.893Z,0.00
2018-06-22T03:05:43.877Z,0.00
2018-06-22T03:06:43.861Z,5.63
2018-06-22T03:07:43.829Z,5.63
2018-06-22T03:08:43.833Z,5.63
2018-06-22T03:09:43.810Z,5.63
2018-06-22T03:10:43.769Z,5.63
2018-06-22T03:11:43.752Z,5.63
2018-06-22T03:12:43.734Z,5.63
2018-06-22T03:13:43.708Z,5.63
2018-06-22T03:14:43.685Z,11.25
2018-06-22T03:15:43.670Z,11.25
2018-06-22T03:16:43.651Z,11.25
2018-06-22T03:17:43.630Z,11.25
2018-06-22T03:18:43.614Z,11.25
2018-06-22T03:19:43.605Z,11.25
2018-06-22T03:20:43.566Z,11.25
2018-06-22T03:21:43.547Z,16.88
2018-06-22T03:22:43.531Z,16.88
2018-06-22T03:23:43.508Z,16.88
2018-06-22T03:24:43.483Z,16.88
2018-06-22T03:25:43.468Z,16.88
2018-06-22T03:26:43.448Z,22.50
2018-06-22T03:27:43.423Z,22.50
2018-06-22T03:28:43.407Z,22.50
2018-06-22T03:29:43.391Z,22.50
2018-06-22T03:30:43.369Z,28.13
2018-06-22T03:31:43.343Z,28.13
2018-06-22T03:32:43.321Z,28.13
2018-06-22T03:33:43.305Z,28.13
2018-06-22T03:34:43.282Z,33.75
2018-06-22T03:35:43.257Z,33.75
2018-06-22T03:36:43.241Z,33.75
2018-06-22T03:37:43.224Z,33.75
2018-06-22T03:38:43.199Z,39.38
2018-06-22T03:39:43.176Z,39.38
2018-06-22T03:40:43.155Z,39.38
2018-06-22T03:41:43.138Z,39.38
2018-06-22T03:42:43.118Z,45.00
2018-06-22T03:43:43.099Z,45.00
2018-06-22T03:44:43.084Z,45.00
2018-06-22T03:45:43.055Z,45.00
2018-06-22T03:46:43.039Z,50.63
2018-06-22T03:47:43.019Z,50.63
2018-06-22T03:48:42.997Z,56.25
2018-06-22T03:49:42.980Z,56.25
2018-06-22T03:50:42.955Z,61.88
2018-06-22T03:51:42.939Z,67.50
2018-06-22T03:52:42.910Z,67.50
2018-06-22T03:53:42.894Z,67.50
2018-06-22T03:54:42.877Z,73.13
2018-06-22T03:55:42.859Z,73.13
2018-06-22T03:56:42.875Z,73.13
2018-06-22T03:57:42.807Z,73.13
2018-06-22T03:58:42.798Z,67.50
2018-06-22T03:59:42.769Z,67.50
2018-06-22T04:00:42.758Z,67.50
2018-06-22T04:01:42.731Z,61.88
2018-06-22T04:02:42.718Z,67.50
2018-06-22T04:03:42.692Z,67.50
2018-06-22T04:04:42.679Z,73.13
2018-06-22T04:05:42.657Z,73.13
2018-06-22T04:06:42.638Z,78.75
2018-06-22T04:07:42.619Z,84.38
2018-06-22T04:08:42.596Z,84.38
2018-06-22T04:09:42.573Z,90.00
2018-06-22T04:10:42.561Z,90.00
2018-06-22T04:11:42.538Z,101.25
2018-06-22T04:12:42.523Z,112.50
2018-06-22T04:13:42.506Z,118.13
2018-06-22T04:14:42.486Z,123.75
2018-06-22T04:15:42.507Z,123.75
2018-06-22T04:16:42.452Z,123.75
2018-06-22T04:17:42.421Z,123.75
2018-06-22T04:18:42.405Z,129.38
2018-06-22T04:19:42.389Z,129.38
2018-06-22T04:20:42.374Z,129.38
2018-06-22T04:21:42.354Z,118.13
2018-06-22T04:22:42.335Z,112.50
2018-06-22T04:23:42.309Z,106.88
2018-06-22T04:24:42.291Z,101.25
2018-06-22T04:25:42.271Z,95.63
2018-06-22T04:26:42.258Z,95.63
2018-06-22T04:27:42.234Z,95.63
2018-06-22T04:28:42.221Z,95.63
2018-06-22T04:29:42.198Z,101.25
2018-06-22T04:30:42.179Z,101.25
2018-06-22T04:31:42.173Z,101.25
2018-06-22T04:32:42.144Z,106.88
2018-06-22T04:33:42.125Z,118.13
2018-06-22T04:34:42.116Z,118.13
2018-06-22T04:35:42.096Z,118.13
2018-06-22T04:36:42.074Z,118.13
2018-06-22T04:37:42.052Z,123.75
2018-06-22T04:38:42.112Z,123.75
2018-06-22T04:39:42.020Z,123.75
2018-06-22T04:40:42.005Z,123.75
2018-06-22T04:41:41.981Z,123.75
2018-06-22T04:42:41.956Z,123.75
2018-06-22T04:43:41.957Z,135.00
2018-06-22T04:44:41.928Z,135.00
2018-06-22T04:45:41.908Z,135.00
2018-06-22T04:46:41.889Z,135.00
2018-06-22T04:47:41.945Z,135.00
2018-06-22T04:48:41.853Z,135.00
2018-06-22T04:49:41.840Z,135.00
2018-06-22T04:50:41.822Z,135.00
2018-06-22T04:51:41.792Z,135.00
2018-06-22T04:52:41.783Z,135.00
2018-06-22T04:53:41.764Z,140.63
2018-06-22T04:54:41.748Z,135.00
2018-06-22T04:55:41.725Z,135.00
2018-06-22T04:56:41.708Z,140.63
2018-06-22T04:57:41.691Z,140.63
2018-06-22T04:58:41.669Z,140.63
2018-06-22T04:59:41.655Z,146.25
2018-06-22T05:00:41.639Z,151.88
2018-06-22T05:01:41.615Z,157.50
2018-06-22T05:02:41.611Z,151.88
2018-06-22T05:03:41.653Z,151.88
2018-06-22T05:04:41.561Z,151.88
2018-06-22T05:05:41.538Z,151.88
2018-06-22T05:06:41.523Z,151.88
2018-06-22T05:07:41.507Z,151.88
2018-06-22T05:08:41.510Z,151.88
2018-06-22T05:09:41.471Z,151.88
2018-06-22T05:10:41.469Z,151.88
2018-06-22T05:11:41.440Z,157.50
2018-06-22T05:12:41.417Z,163.13
2018-06-22T05:13:41.398Z,180.00
2018-06-22T05:14:41.373Z,196.88
2018-06-22T05:15:41.367Z,185.63
2018-06-22T05:16:41.355Z,174.38
2018-06-22T05:17:41.368Z,185.63
2018-06-22T05:18:41.332Z,180.00
2018-06-22T05:19:41.306Z,157.50
2018-06-22T05:20:41.276Z,163.13
2018-06-22T05:21:41.267Z,163.13
2018-06-22T05:22:41.263Z,163.13
2018-06-22T05:23:41.225Z,163.13
2018-06-22T05:24:41.245Z,163.13
2018-06-22T05:25:41.193Z,157.50
2018-06-22T05:26:41.177Z,174.38
2018-06-22T05:27:41.156Z,168.75
2018-06-22T05:28:41.131Z,168.75
2018-06-22T05:29:41.123Z,180.00
2018-06-22T05:30:41.096Z,168.75
2018-06-22T05:31:41.093Z,180.00
2018-06-22T05:32:41.076Z,168.75
2018-06-22T05:33:41.045Z,208.13
2018-06-22T05:34:41.034Z,202.50
2018-06-22T05:35:41.017Z,191.25
2018-06-22T05:36:40.995Z,180.00
2018-06-22T05:37:40.982Z,163.13
2018-06-22T05:38:40.954Z,168.75
2018-06-22T05:39:40.941Z,168.75
2018-06-22T05:40:40.932Z,168.75
2018-06-22T05:41:40.906Z,174.38
2018-06-22T05:42:40.887Z,174.38
2018-06-22T05:43:40.881Z,180.00
2018-06-22T05:44:40.857Z,180.00
2018-06-22T05:45:40.842Z,174.38
2018-06-22T05:46:40.828Z,174.38
2018-06-22T05:47:40.806Z,174.38
2018-06-22T05:48:40.796Z,174.38
2018-06-22T05:49:40.780Z,174.38
2018-06-22T05:50:40.774Z,174.38
2018-06-22T05:51:40.739Z,180.00
2018-06-22T05:52:40.722Z,185.63
2018-06-22T05:53:40.707Z,191.25
2018-06-22T05:54:40.687Z,196.88
2018-06-22T05:55:40.675Z,219.38
2018-06-22T05:56:40.699Z,230.63
2018-06-22T05:57:40.642Z,208.13
2018-06-22T05:58:40.611Z,196.88
2018-06-22T05:59:40.606Z,202.50
2018-06-22T06:00:40.589Z,225.00
2018-06-22T06:01:40.564Z,219.38
2018-06-22T06:02:40.552Z,213.75
2018-06-22T06:03:40.547Z,208.13
2018-06-22T06:04:40.520Z,270.00
2018-06-22T06:05:40.504Z,247.50
2018-06-22T06:06:40.499Z,241.88
2018-06-22T06:07:40.470Z,208.13
2018-06-22T06:08:40.456Z,191.25
2018-06-22T06:09:40.440Z,208.13
2018-06-22T06:10:40.421Z,253.13
2018-06-22T06:11:40.411Z,270.00
2018-06-22T06:12:40.417Z,253.13
2018-06-22T06:13:40.384Z,241.88
2018-06-22T06:14:40.372Z,270.00
2018-06-22T06:15:40.355Z,270.00
2018-06-22T06:16:40.331Z,275.63
2018-06-22T06:17:40.312Z,348.75
2018-06-22T06:18:40.293Z,382.50
2018-06-22T06:19:40.280Z,382.50
2018-06-22T06:20:40.258Z,337.50
2018-06-22T06:21:40.245Z,247.50
2018-06-22T06:22:40.231Z,208.13
2018-06-22T06:23:40.209Z,202.50
2018-06-22T06:24:40.199Z,202.50
2018-06-22T06:25:40.193Z,264.38
2018-06-22T06:26:40.171Z,264.38
2018-06-22T06:27:40.158Z,258.75
2018-06-22T06:28:40.135Z,286.88
2018-06-22T06:29:40.113Z,298.13
2018-06-22T06:30:40.101Z,281.25
2018-06-22T06:31:40.084Z,258.75
2018-06-22T06:32:40.086Z,208.13
2018-06-22T06:33:40.064Z,219.38
2018-06-22T06:34:40.045Z,264.38
2018-06-22T06:35:40.032Z,360.00
2018-06-22T06:36:40.008Z,489.38
2018-06-22T06:37:39.994Z,596.25
2018-06-22T06:38:39.982Z,613.13
2018-06-22T06:39:39.978Z,562.50
2018-06-22T06:40:39.943Z,466.88
2018-06-22T06:41:39.930Z,506.25
2018-06-22T06:42:39.910Z,466.88
2018-06-22T06:43:39.901Z,405.00
2018-06-22T06:44:39.895Z,478.13
2018-06-22T06:45:39.863Z,478.13
2018-06-22T06:46:39.860Z,478.13
2018-06-22T06:47:39.840Z,410.63
2018-06-22T06:48:39.822Z,348.75
2018-06-22T06:49:39.890Z,343.13
2018-06-22T06:50:39.800Z,331.88
2018-06-22T06:51:39.780Z,320.63
2018-06-22T06:52:39.767Z,292.50
2018-06-22T06:53:39.748Z,281.25
2018-06-22T06:54:39.732Z,326.25
2018-06-22T06:55:39.723Z,286.88
2018-06-22T06:56:39.717Z,298.13
2018-06-22T06:57:39.694Z,388.13
2018-06-22T06:58:39.678Z,410.63
2018-06-22T06:59:39.659Z,433.13
2018-06-22T07:00:39.646Z,433.13
2018-06-22T07:01:39.640Z,410.63
2018-06-22T07:02:39.625Z,388.13
2018-06-22T07:03:39.605Z,382.50
2018-06-22T07:04:39.582Z,337.50
2018-06-22T07:05:39.572Z,337.50
2018-06-22T07:06:39.557Z,343.13
2018-06-22T07:07:39.547Z,343.13
2018-06-22T07:08:39.531Z,331.88
2018-06-22T07:09:39.512Z,348.75
2018-06-22T07:10:39.496Z,405.00
2018-06-22T07:11:39.485Z,450.00
2018-06-22T07:12:39.468Z,607.50
2018-06-22T07:13:39.448Z,742.50
2018-06-22T07:14:39.442Z,815.63
2018-06-22T07:15:39.423Z,770.63
2018-06-22T07:16:39.401Z,731.25
2018-06-22T07:17:39.400Z,759.38
2018-06-22T07:18:39.371Z,686.25
2018-06-22T07:19:39.361Z,675.00
2018-06-22T07:20:39.359Z,669.38
2018-06-22T07:21:39.327Z,663.75
2018-06-22T07:22:39.317Z,787.50
2018-06-22T07:23:39.295Z,708.75
2018-06-22T07:24:39.295Z,562.50
2018-06-22T07:25:39.279Z,585.00
2018-06-22T07:26:39.272Z,601.88
2018-06-22T07:27:39.250Z,680.63
2018-06-22T07:28:39.240Z,663.75
2018-06-22T07:29:39.222Z,669.38
2018-06-22T07:30:39.260Z,759.38
2018-06-22T07:31:39.190Z,680.63
2018-06-22T07:32:39.181Z,500.63
2018-06-22T07:33:39.162Z,568.13
2018-06-22T07:34:39.152Z,540.00
2018-06-22T07:35:39.139Z,466.88
2018-06-22T07:36:39.126Z,466.88
2018-06-22T07:37:39.110Z,483.75
2018-06-22T07:38:39.110Z,483.75
2018-06-22T07:39:39.081Z,472.50
2018-06-22T07:40:39.073Z,455.63
2018-06-22T07:41:39.062Z,427.50
2018-06-22T07:42:39.043Z,405.00
2018-06-22T07:43:39.035Z,421.88
2018-06-22T07:44:39.012Z,511.88
2018-06-22T07:45:39.003Z,635.63
2018-06-22T07:46:39.012Z,714.38
2018-06-22T07:47:38.993Z,703.13
2018-06-22T07:48:38.970Z,731.25
2018-06-22T07:49:38.948Z,618.75
2018-06-22T07:50:38.938Z,568.13
2018-06-22T07:51:38.922Z,545.63
2018-06-22T07:52:38.922Z,607.50
2018-06-22T07:53:38.900Z,697.50
2018-06-22T07:54:38.890Z,759.38
2018-06-22T07:55:38.866Z,826.88
2018-06-22T07:56:38.852Z,967.50
2018-06-22T07:57:38.857Z,1119.38
2018-06-22T07:58:38.857Z,1153.13
2018-06-22T07:59:38.816Z,1141.88
2018-06-22T08:00:38.800Z,1198.13
2018-06-22T08:01:38.809Z,1119.38
2018-06-22T08:02:38.781Z,1147.50
2018-06-22T08:03:38.788Z,1063.13
2018-06-22T08:04:38.758Z,1068.75
2018-06-22T08:05:38.739Z,1006.88
2018-06-22T08:06:38.733Z,939.38
2018-06-22T08:07:38.733Z,928.13
2018-06-22T08:08:38.728Z,933.75
2018-06-22T08:09:38.697Z,984.38
2018-06-22T08:10:38.681Z,1012.50
2018-06-22T08:11:38.675Z,939.38
2018-06-22T08:12:38.662Z,950.63
2018-06-22T08:13:38.656Z,888.75
2018-06-22T08:14:38.637Z,708.75
2018-06-22T08:15:38.628Z,669.38
2018-06-22T08:16:38.614Z,731.25
2018-06-22T08:17:38.656Z,686.25
2018-06-22T08:18:38.594Z,691.88
2018-06-22T08:19:38.587Z,720.00
2018-06-22T08:20:38.579Z,815.63
2018-06-22T08:21:38.566Z,742.50
2018-06-22T08:22:38.556Z,686.25
2018-06-22T08:23:38.583Z,641.25
2018-06-22T08:24:38.524Z,579.38
2018-06-22T08:25:38.534Z,613.13
2018-06-22T08:26:38.503Z,641.25
2018-06-22T08:27:38.495Z,675.00
2018-06-22T08:28:38.482Z,618.75
2018-06-22T08:29:38.474Z,697.50
2018-06-22T08:30:38.456Z,675.00
2018-06-22T08:31:38.449Z,646.88
2018-06-22T08:32:38.433Z,720.00
2018-06-22T08:33:38.423Z,748.13
2018-06-22T08:34:38.415Z,843.75
2018-06-22T08:35:38.394Z,883.13
2018-06-22T08:36:38.384Z,922.50
2018-06-22T08:37:38.376Z,1001.25
2018-06-22T08:38:38.368Z,1046.25
2018-06-22T08:39:38.349Z,1080.00
2018-06-22T08:40:38.337Z,1029.38
2018-06-22T08:41:38.337Z,961.88
2018-06-22T08:42:38.308Z,939.38
2018-06-22T08:43:38.298Z,1012.50
2018-06-22T08:44:38.285Z,956.25
2018-06-22T08:45:38.296Z,815.63
2018-06-22T08:46:38.269Z,691.88
2018-06-22T08:47:38.254Z,613.13
2018-06-22T08:48:38.233Z,585.00
2018-06-22T08:49:38.224Z,545.63
2018-06-22T08:50:38.208Z,579.38
2018-06-22T08:51:38.202Z,483.75
2018-06-22T08:52:38.189Z,405.00
2018-06-22T08:53:38.195Z,343.13
2018-06-22T08:54:38.166Z,343.13
2018-06-22T08:55:38.201Z,382.50
2018-06-22T08:56:38.164Z,399.38
2018-06-22T08:57:38.123Z,461.25
2018-06-22T08:58:38.118Z,500.63
2018-06-22T08:59:38.102Z,506.25
2018-06-22T09:00:38.090Z,517.50
2018-06-22T09:01:38.080Z,590.63
2018-06-22T09:02:38.061Z,669.38
2018-06-22T09:03:38.051Z,658.13
2018-06-22T09:04:38.032Z,630.00
2018-06-22T09:05:38.025Z,613.13
2018-06-22T09:06:38.016Z,703.13
2018-06-22T09:07:38.000Z,793.13
2018-06-22T09:08:38.013Z,787.50
2018-06-22T09:09:37.971Z,787.50
2018-06-22T09:10:37.962Z,804.38
2018-06-22T09:11:37.954Z,703.13
2018-06-22T09:12:37.953Z,697.50
2018-06-22T09:13:38.019Z,686.25
2018-06-22T09:14:37.997Z,568.13
2018-06-22T09:15:37.897Z,495.00
2018-06-22T09:16:37.888Z,495.00
2018-06-22T09:17:37.872Z,506.25
2018-06-22T09:18:37.871Z,489.38
2018-06-22T09:19:37.864Z,523.13
2018-06-22T09:20:37.838Z,556.88
2018-06-22T09:21:37.833Z,590.63
2018-06-22T09:22:37.807Z,590.63
2018-06-22T09:23:37.799Z,669.38
2018-06-22T09:24:37.784Z,686.25
2018-06-22T09:25:37.773Z,753.75
2018-06-22T09:26:37.768Z,900.00
2018-06-22T09:27:37.769Z,855.00
2018-06-22T09:28:37.743Z,843.75
2018-06-22T09:29:37.733Z,832.50
2018-06-22T09:30:37.709Z,781.88
2018-06-22T09:31:37.708Z,787.50
2018-06-22T09:32:37.686Z,770.63
2018-06-22T09:33:37.687Z,770.63
2018-06-22T09:34:37.654Z,624.38
2018-06-22T09:35:37.640Z,523.13
2018-06-22T09:36:37.641Z,506.25
2018-06-22T09:37:37.654Z,528.75
2018-06-22T09:38:37.605Z,545.63
2018-06-22T09:39:37.591Z,624.38
2018-06-22T09:40:37.582Z,770.63
2018-06-22T09:41:37.579Z,894.38
2018-06-22T09:42:37.626Z,1012.50
2018-06-22T09:43:37.584Z,1012.50
2018-06-22T09:44:37.530Z,1136.25
2018-06-22T09:45:37.527Z,1091.25
2018-06-22T09:46:37.508Z,1029.38
2018-06-22T09:47:37.497Z,838.13
2018-06-22T09:48:37.483Z,697.50
2018-06-22T09:49:37.484Z,742.50
2018-06-22T09:50:37.467Z,742.50
2018-06-22T09:51:37.439Z,753.75
2018-06-22T09:52:37.422Z,810.00
2018-06-22T09:53:37.413Z,922.50
2018-06-22T09:54:37.400Z,1006.88
2018-06-22T09:55:37.386Z,984.38
2018-06-22T09:56:37.378Z,984.38
2018-06-22T09:57:37.372Z,950.63
2018-06-22T09:58:37.345Z,961.88
2018-06-22T09:59:37.352Z,967.50
2018-06-22T10:00:37.330Z,984.38
2018-06-22T10:01:37.323Z,905.63
2018-06-22T10:02:37.298Z,877.50
2018-06-22T10:03:37.295Z,753.75
2018-06-22T10:04:37.290Z,708.75
2018-06-22T10:05:37.284Z,691.88
2018-06-22T10:06:37.252Z,753.75
2018-06-22T10:07:37.247Z,804.38
2018-06-22T10:08:37.233Z,787.50
2018-06-22T10:09:37.224Z,703.13
2018-06-22T10:10:37.209Z,686.25
2018-06-22T10:11:37.189Z,675.00
2018-06-22T10:12:37.180Z,624.38
2018-06-22T10:13:37.200Z,568.13
2018-06-22T10:14:37.158Z,534.38
2018-06-22T10:15:37.151Z,556.88
2018-06-22T10:16:37.131Z,601.88
2018-06-22T10:17:37.123Z,669.38
2018-06-22T10:18:37.105Z,798.75
2018-06-22T10:19:37.152Z,855.00
2018-06-22T10:20:37.095Z,793.13
2018-06-22T10:21:37.070Z,646.88
2018-06-22T10:22:37.064Z,562.50
2018-06-22T10:23:37.050Z,517.50
2018-06-22T10:24:37.032Z,472.50
2018-06-22T10:25:37.024Z,438.75
2018-06-22T10:26:37.021Z,455.63
2018-06-22T10:27:37.000Z,466.88
2018-06-22T10:28:36.988Z,506.25
2018-06-22T10:29:37.003Z,534.38
2018-06-22T10:30:36.957Z,506.25
2018-06-22T10:31:36.966Z,478.13
2018-06-22T10:32:36.930Z,455.63
2018-06-22T10:33:36.924Z,444.38
2018-06-22T10:34:36.909Z,421.88
2018-06-22T10:35:36.912Z,438.75
2018-06-22T10:36:36.889Z,461.25
2018-06-22T10:37:36.868Z,545.63
2018-06-22T10:38:36.854Z,641.25
2018-06-22T10:39:36.873Z,759.38
2018-06-22T10:40:36.829Z,686.25
2018-06-22T10:41:36.824Z,658.13
2018-06-22T10:42:36.809Z,686.25
2018-06-22T10:43:36.785Z,753.75
2018-06-22T10:44:36.779Z,793.13
2018-06-22T10:45:36.762Z,736.88
2018-06-22T10:46:36.774Z,748.13
2018-06-22T10:47:36.740Z,815.63
2018-06-22T10:48:36.724Z,843.75
2018-06-22T10:49:36.711Z,849.38
2018-06-22T10:50:36.698Z,832.50
2018-06-22T10:51:36.757Z,815.63
2018-06-22T10:52:36.710Z,832.50
2018-06-22T10:53:36.654Z,849.38
2018-06-22T10:54:36.641Z,697.50
2018-06-22T10:55:36.633Z,596.25
2018-06-22T10:56:36.616Z,528.75
2018-06-22T10:57:36.606Z,511.88
2018-06-22T10:58:36.590Z,562.50
2018-06-22T10:59:36.627Z,607.50
2018-06-22T11:00:36.568Z,697.50
2018-06-22T11:01:36.552Z,776.25
2018-06-22T11:02:36.542Z,866.25
2018-06-22T11:03:36.529Z,950.63
2018-06-22T11:04:36.520Z,1063.13
2018-06-22T11:05:36.547Z,1029.38
2018-06-22T11:06:36.488Z,798.75
2018-06-22T11:07:36.498Z,725.63
2018-06-22T11:08:36.467Z,579.38
2018-06-22T11:09:36.459Z,528.75
2018-06-22T11:10:36.446Z,466.88
2018-06-22T11:11:36.429Z,416.25
2018-06-22T11:12:36.413Z,405.00
2018-06-22T11:13:36.407Z,360.00
2018-06-22T11:14:36.399Z,343.13
2018-06-22T11:15:36.398Z,348.75
2018-06-22T11:16:36.372Z,388.13
2018-06-22T11:17:36.372Z,478.13
2018-06-22T11:18:36.343Z,607.50
2018-06-22T11:19:36.337Z,708.75
2018-06-22T11:20:36.347Z,810.00
2018-06-22T11:21:36.296Z,871.88
2018-06-22T11:22:36.311Z,804.38
2018-06-22T11:23:36.279Z,860.63
2018-06-22T11:24:36.352Z,933.75
2018-06-22T11:25:36.247Z,1096.88
2018-06-22T11:26:36.239Z,1209.38
2018-06-22T11:27:36.244Z,1243.13
2018-06-22T11:28:36.226Z,1271.25
2018-06-22T11:29:36.216Z,1265.63
2018-06-22T11:30:36.191Z,1018.13
2018-06-22T11:31:36.175Z,950.63
2018-06-22T11:32:36.236Z,900.00
2018-06-22T11:33:36.169Z,922.50
2018-06-22T11:34:36.206Z,1001.25
2018-06-22T11:35:36.305Z,1096.88
2018-06-22T11:36:36.138Z,1203.75
2018-06-22T11:37:36.108Z,1321.88
2018-06-22T11:38:36.094Z,1372.50
2018-06-22T11:39:36.098Z,1378.13
2018-06-22T11:40:36.072Z,1423.13
2018-06-22T11:41:36.097Z,1327.50
2018-06-22T11:42:36.055Z,1451.25
2018-06-22T11:43:36.054Z,1580.63
2018-06-22T11:44:36.027Z,1777.50
2018-06-22T11:45:36.021Z,483.75
2018-06-22T11:46:36.015Z,382.50
2018-06-22T11:47:35.999Z,399.38
2018-06-22T11:48:35.998Z,416.25
2018-06-22T11:49:36.021Z,517.50
2018-06-22T11:50:35.976Z,669.38
2018-06-22T11:51:35.960Z,697.50
2018-06-22T11:52:35.950Z,793.13
2018-06-22T11:53:35.938Z,855.00
2018-06-22T11:54:35.928Z,1091.25
2018-06-22T11:55:35.909Z,1366.88
2018-06-22T11:56:35.918Z,1108.13
2018-06-22T11:57:35.900Z,641.25
2018-06-22T11:58:35.877Z,438.75
2018-06-22T11:59:35.867Z,337.50
2018-06-22T12:00:35.871Z,286.88
2018-06-22T12:01:35.907Z,270.00
2018-06-22T12:02:35.835Z,309.38
2018-06-22T12:03:35.831Z,399.38
2018-06-22T12:04:35.838Z,534.38
2018-06-22T12:05:35.800Z,669.38
2018-06-22T12:06:35.796Z,905.63
2018-06-22T12:07:35.777Z,1170.00
2018-06-22T12:08:35.767Z,1226.25
2018-06-22T12:09:35.755Z,1310.63
2018-06-22T12:10:35.742Z,1288.13
2018-06-22T12:11:35.743Z,1299.38
2018-06-22T12:12:35.722Z,1237.50
2018-06-22T12:13:35.706Z,1248.75
2018-06-22T12:14:35.703Z,1265.63
2018-06-22T12:15:35.687Z,1406.25
2018-06-22T12:16:35.684Z,1501.88
2018-06-22T12:17:35.665Z,956.25
2018-06-22T12:18:35.655Z,815.63
2018-06-22T12:19:35.646Z,984.38
2018-06-22T12:20:35.629Z,1080.00
2018-06-22T12:21:35.626Z,1125.00
2018-06-22T12:22:35.620Z,1310.63
2018-06-22T12:23:35.606Z,1631.25
2018-06-22T12:24:35.592Z,1648.13
2018-06-22T12:25:35.588Z,1839.38
2018-06-22T12:26:35.582Z,1839.38
2018-06-22T12:27:35.608Z,1653.75
2018-06-22T12:28:35.591Z,1828.13
2018-06-22T12:29:35.538Z,984.38
2018-06-22T12:30:35.530Z,675.00
2018-06-22T12:31:35.524Z,495.00
2018-06-22T12:32:35.508Z,483.75
2018-06-22T12:33:35.501Z,511.88
2018-06-22T12:34:35.495Z,556.88
2018-06-22T12:35:35.479Z,540.00
2018-06-22T12:36:35.482Z,472.50
2018-06-22T12:37:35.466Z,393.75
2018-06-22T12:38:35.512Z,348.75
2018-06-22T12:39:35.454Z,326.25
2018-06-22T12:40:35.430Z,343.13